Flight Track Log - Related Links

Times and Time Zones

All times are in EDT time to prevent confusion due to time zone crossing. See the UAL4295 flight status page for this flight to view local times or setup timezone preferences in your user account.

Time Position Orientation Groundspeed Altitude Reporting Facility
EDT Latitude Longitude Course Direction KTS MPH feet Rate Location/Type
Wed 05:00:31 PM 39.9997 -82.8003 91° East 193 222 2,900  Level Indianapolis Center
Wed 05:01:06 PM 40.0003 -82.7644 89° East 205 236 3,600 1,600 Climbing Indianapolis Center
Wed 05:01:31 PM 39.9844 -82.7186 114° Southeast 242 278 4,500 1,967 Climbing Indianapolis Center
Wed 05:02:00 PM 39.7861 -83.2102 270° West  Level Estimated
Wed 05:02:07 PM 39.9503 -82.7117 171° South 224 258 5,600  Level Indianapolis Center
Wed 05:03:00 PM 39.7156 -83.3157 270° West  Level Estimated
Wed 05:03:09 PM 39.9328 -82.7822 252° West 227 261 6,900  Level Indianapolis Center
Wed 05:04:00 PM 39.7840 -83.4236 310° West  Level FlightAware Approximate
Wed 05:04:11 PM 39.9339 -82.8683 271° West 238 274 8,400  Level Indianapolis Center
Wed 05:05:00 PM 39.7099 -83.5324 270° West  Level Estimated
Wed 05:05:13 PM 39.9250 -82.9606 263° West 254 292 9,900  Level Indianapolis Center
Wed 05:06:15 PM 39.9128 -83.0594 261° West 273 314 10,900 1,016 Climbing Indianapolis Center
Wed 05:07:17 PM 39.8747 -83.1589 244° Southwest 302 348 12,000 1,355 Climbing Indianapolis Center
Wed 05:08:19 PM 39.8275 -83.2800 243° Southwest 311 358 13,700 1,548 Climbing Indianapolis Center
Wed 05:09:21 PM 39.7875 -83.3789 242° Southwest 307 353 15,200 1,452 Climbing Indianapolis Center
Wed 05:10:23 PM 39.7478 -83.4794 243° Southwest 304 350 16,700 1,220 Climbing Indianapolis Center
Wed 05:11:24 PM 39.7092 -83.5786 243° Southwest 303 349 17,700 976 Climbing Indianapolis Center
Wed 05:12:26 PM 39.6692 -83.6803 243° Southwest 311 358 18,700 968 Climbing Indianapolis Center
Wed 05:13:28 PM 39.6269 -83.7844 242° Southwest 322 371 19,700 968 Climbing Indianapolis Center
Wed 05:14:30 PM 39.5844 -83.8900 242° Southwest 331 381 20,700 919 Climbing Indianapolis Center
Wed 05:15:32 PM 39.5414 -83.9994 243° Southwest 338 389 21,600 927 Climbing Indianapolis Center
Wed 05:16:33 PM 39.4967 -84.1078 242° Southwest 342 394 22,600 1,073 Climbing Indianapolis Center
Wed 05:17:35 PM 39.4447 -84.2386 243° Southwest 342 394 23,800 1,065 Climbing Indianapolis Center
Wed 05:18:37 PM 39.4008 -84.3461 242° Southwest 339 390 24,800 919 Climbing Indianapolis Center
Wed 05:19:39 PM 39.3567 -84.4544 242° Southwest 341 392 25,700 927 Climbing Indianapolis Center
Wed 05:20:40 PM 39.3133 -84.5594 242° Southwest 334 384 26,700 976 Climbing Indianapolis Center
Wed 05:21:42 PM 39.2700 -84.6656 242° Southwest 334 384 27,700 968 Climbing Indianapolis Center
Wed 05:22:44 PM 39.2269 -84.7700 242° Southwest 332 382 28,700 1,024 Climbing Indianapolis Center
Wed 05:23:45 PM 39.1764 -84.8931 242° Southwest 332 382 29,800 976 Climbing Indianapolis Center
Wed 05:24:47 PM 39.1331 -84.9969 242° Southwest 330 380 30,700 823 Climbing Indianapolis Center
Wed 05:25:49 PM 39.0892 -85.1000 241° Southwest 330 380 31,500 726 Climbing Indianapolis Center
Wed 05:26:51 PM 39.0458 -85.2044 242° Southwest 330 380 32,200 732 Climbing Indianapolis Center
Wed 05:27:52 PM 39.0011 -85.3103 241° Southwest 335 386 33,000 780 Climbing Indianapolis Center
Wed 05:28:54 PM 38.9569 -85.4136 241° Southwest 332 382 33,800 677 Climbing Indianapolis Center
Wed 05:29:56 PM 38.9133 -85.5172 242° Southwest 330 380 34,400 581 Climbing Indianapolis Center
Wed 05:30:58 PM 38.8694 -85.6200 241° Southwest 329 379 35,000 581 Climbing Indianapolis Center
Wed 05:32:00 PM 38.8169 -85.7447 242° Southwest 330 380 35,600 484 Climbing Indianapolis Center
Wed 05:33:02 PM 38.7733 -85.8481 242° Southwest 329 379 36,000 195 Climbing Indianapolis Center
Wed 05:34:03 PM 38.7258 -85.9583 241° Southwest 338 389 36,000  Level Indianapolis Center
Wed 05:35:05 PM 38.6775 -86.0678 241° Southwest 350 403 36,000  Level Indianapolis Center
Wed 05:36:07 PM 38.6289 -86.1836 242° Southwest 366 421 36,000  Level Indianapolis Center
Wed 05:37:09 PM 38.5769 -86.3017 241° Southwest 377 434 36,000  Level Indianapolis Center
Wed 05:38:11 PM 38.5233 -86.4236 241° Southwest 389 448 36,000  Level Indianapolis Center
Wed 05:39:13 PM 38.4689 -86.5500 241° Southwest 402 463 36,000  Level Indianapolis Center
Wed 05:40:14 PM 38.4006 -86.7042 241° Southwest 415 478 36,000  Level Indianapolis Center
Wed 05:41:16 PM 38.3425 -86.8358 241° Southwest 420 483 36,000  Level Indianapolis Center
Wed 05:42:18 PM 38.2881 -86.9583 241° Southwest 426 490 36,000  Level Indianapolis Center
Wed 05:43:20 PM 38.2300 -87.0931 241° Southwest 432 497 36,000  Level Indianapolis Center
Wed 05:44:22 PM 38.1556 -87.2433 238° Southwest 435 501 36,000  Level Indianapolis Center
Wed 05:45:24 PM 38.0708 -87.3475 224° Southwest 425 489 36,000  Level Indianapolis Center
Wed 05:46:26 PM 37.9794 -87.4431 220° Southwest 425 489 36,000  Level Indianapolis Center
Wed 05:47:28 PM 37.8886 -87.5403 220° Southwest 426 490 36,000  Level Indianapolis Center
Wed 05:48:29 PM 37.7961 -87.6358 219° Southwest 426 490 36,000  Level Indianapolis Center
Wed 05:49:31 PM 37.7011 -87.7381 220° Southwest 427 491 36,000  Level Indianapolis Center
Wed 05:50:33 PM 37.6169 -87.8456 225° Southwest 427 491 36,000  Level Indianapolis Center
Wed 05:52:37 PM 37.4319 -88.0769 225° Southwest 432 497 36,000  Level Indianapolis Center
Wed 05:53:38 PM 37.3367 -88.1714 218° Southwest 433 498 36,000  Level Indianapolis Center
Wed 05:54:40 PM 37.2431 -88.2683 220° Southwest 433 498 36,000  Level Indianapolis Center
Wed 05:55:42 PM 37.1469 -88.3619 218° Southwest 434 499 36,000  Level Indianapolis Center
Wed 05:56:44 PM 37.0486 -88.4536 217° Southwest 436 502 36,000  Level Indianapolis Center
Wed 05:57:46 PM 36.9472 -88.5425 215° Southwest 439 505 36,000  Level Indianapolis Center
Wed 05:58:48 PM 36.8467 -88.6300 215° Southwest 439 505 36,000  Level Indianapolis Center
Wed 05:59:52 PM 36.7444 -88.7517 224° Southwest 438 504 36,000  Level Memphis Center
Wed 06:00:52 PM 36.6539 -88.8569 223° Southwest 443 510 36,000  Level Memphis Center
Wed 06:01:52 PM 36.5633 -88.9592 222° Southwest 443 510 36,000  Level Memphis Center
Wed 06:02:52 PM 36.4853 -89.0483 223° Southwest 438 504 36,000  Level Memphis Center
Wed 06:03:52 PM 36.3922 -89.1428 219° Southwest 438 504 36,000  Level Memphis Center
Wed 06:04:52 PM 36.2975 -89.2678 227° Southwest 438 504 36,000  Level Memphis Center
Wed 06:05:52 PM 36.2089 -89.3614 220° Southwest 461 531 36,000  Level Memphis Center
Wed 06:06:52 PM 36.1200 -89.4628 223° Southwest 455 524 36,000  Level Memphis Center
Wed 06:07:52 PM 36.0289 -89.5664 223° Southwest 450 518 36,000  Level Memphis Center
Wed 06:08:52 PM 35.9378 -89.6700 223° Southwest 444 511 36,000  Level Memphis Center
Wed 06:09:52 PM 35.8486 -89.7706 222° Southwest 449 517 36,000  Level Memphis Center
Wed 06:10:52 PM 35.7553 -89.8761 223° Southwest 449 517 36,000  Level Memphis Center
Wed 06:11:52 PM 35.6617 -89.9839 223° Southwest 438 504 36,000  Level Memphis Center
Wed 06:12:52 PM 35.5722 -90.0892 224° Southwest 438 504 36,000  Level Memphis Center
Wed 06:13:52 PM 35.4808 -90.1939 223° Southwest 449 517 36,000  Level Memphis Center
Wed 06:14:52 PM 35.3869 -90.2933 221° Southwest 449 517 36,000  Level Memphis Center
Wed 06:15:52 PM 35.2953 -90.3953 222° Southwest 444 511 36,000  Level Memphis Center
Wed 06:16:52 PM 35.2158 -90.4842 222° Southwest 444 511 36,000  Level Memphis Center
Wed 06:17:52 PM 35.1239 -90.5881 223° Southwest 444 511 36,000  Level Memphis Center
Wed 06:18:52 PM 35.0342 -90.6867 222° Southwest 444 511 36,000  Level Memphis Center
Wed 06:19:52 PM 34.9419 -90.7828 221° Southwest 439 505 36,000  Level Memphis Center
Wed 06:20:52 PM 34.8497 -90.8833 222° Southwest 439 505 36,000  Level Memphis Center
Wed 06:21:52 PM 34.7597 -90.9814 222° Southwest 439 505 36,000  Level Memphis Center
Wed 06:22:52 PM 34.6672 -91.0819 222° Southwest 439 505 36,000  Level Memphis Center
Wed 06:23:52 PM 34.5750 -91.1794 221° Southwest 439 505 36,000  Level Memphis Center
Wed 06:24:52 PM 34.4822 -91.2819 222° Southwest 444 511 36,000  Level Memphis Center
Wed 06:25:52 PM 34.3814 -91.3889 221° Southwest 444 511 36,000  Level Memphis Center
Wed 06:26:52 PM 34.2867 -91.4883 221° Southwest 449 517 36,000  Level Memphis Center
Wed 06:27:52 PM 34.1939 -91.5825 220° Southwest 444 511 36,000  Level Memphis Center
Wed 06:28:52 PM 34.1011 -91.6842 222° Southwest 444 511 36,000  Level Memphis Center
Wed 06:29:52 PM 34.0186 -91.7731 222° Southwest 439 505 36,000  Level Memphis Center
Wed 06:30:52 PM 33.9278 -91.8742 223° Southwest 444 511 36,000  Level Memphis Center
Wed 06:33:21 PM 33.6942 -92.1111 220° Southwest 445 512 36,000  Level Fort Worth Center
Wed 06:34:21 PM 33.6000 -92.2092 221° Southwest 445 512 36,000  Level Fort Worth Center
Wed 06:35:21 PM 33.4925 -92.2828 210° Southwest 445 512 36,000  Level Fort Worth Center
Wed 06:36:21 PM 33.3706 -92.3122 191° South 437 503 36,000  Level Fort Worth Center
Wed 06:37:21 PM 33.2528 -92.3414 192° South 437 503 36,000  Level Fort Worth Center
Wed 06:38:22 PM 33.1372 -92.3728 193° South 444 511 36,000  Level Fort Worth Center
Wed 06:39:21 PM 33.0114 -92.4047 192° South 452 520 36,000  Level Fort Worth Center
Wed 06:40:21 PM 32.8894 -92.4361 192° South 453 521 36,000  Level Fort Worth Center
Wed 06:41:22 PM 32.7694 -92.4675 192° South 447 514 36,000  Level Fort Worth Center
Wed 06:42:21 PM 32.6475 -92.4964 191° South 447 514 36,000  Level Fort Worth Center
Wed 06:44:13 PM 32.4192 -92.5614 194° South 436 502 36,000  Level Houston Center
Wed 06:45:15 PM 32.3025 -92.5928 193° South 434 499 36,000  Level Houston Center
Wed 06:46:17 PM 32.1831 -92.6222 192° South 438 504 36,000  Level Houston Center
Wed 06:47:19 PM 32.0644 -92.6536 193° South 438 504 36,000 -48 Level Houston Center
Wed 06:48:21 PM 31.9506 -92.7017 200° South 458 527 35,900  Descending Houston Center
Wed 06:49:24 PM 31.8372 -92.8100 219° Southwest 446 513 36,000 48 Climbing Houston Center
Wed 06:50:26 PM 31.7425 -92.9006 219° Southwest 441 507 36,000  Level Houston Center
Wed 06:51:28 PM 31.6475 -92.9903 219° Southwest 439 505 36,000  Level Houston Center
Wed 06:52:30 PM 31.5531 -93.0800 219° Southwest 439 505 36,000  Level Houston Center
Wed 06:53:32 PM 31.4600 -93.1731 220° Southwest 439 505 36,000 -48 Level Houston Center
Wed 06:54:34 PM 31.3453 -93.2817 219° Southwest 444 511 35,900 -532 Descending Houston Center
Wed 06:55:36 PM 31.2522 -93.3700 219° Southwest 434 499 34,900 -1,306 Descending Houston Center
Wed 06:56:38 PM 31.1619 -93.4556 219° Southwest 421 484 33,200 -1,742 Descending Houston Center
Wed 06:57:40 PM 31.0714 -93.5428 220° Southwest 422 486 31,300 -1,824 Descending Houston Center
Wed 06:58:43 PM 30.9797 -93.6294 219° Southwest 425 489 29,400 -2,064 Descending Houston Center
Wed 06:59:45 PM 30.8653 -93.7383 219° Southwest 444 511 27,000 -2,081 Descending Houston Center
Wed 07:00:47 PM 30.7708 -93.8272 219° Southwest 442 509 25,100 -1,887 Descending Houston Center
Wed 07:01:49 PM 30.6778 -93.9142 219° Southwest 435 501 23,100 -2,081 Descending Houston Center
Wed 07:02:51 PM 30.5903 -93.9975 219° Southwest 420 483 20,800 -2,471 Descending Houston Center
Wed 07:02:57 PM 30.5692 -94.0169 218° Southwest 397 457 20,300 -2,400 Descending Houston Center
Wed 07:03:46 PM 30.4981 -94.0822 218° Southwest 404 465 18,600 -1,821 Descending Houston Center
Wed 07:03:53 PM 30.5033 -94.0792 27° Northeast 410 472 18,600 -2,129 Level Houston Center
Wed 07:04:48 PM 30.4078 -94.1672 218° Southwest 398 458 16,400 -2,323 Descending Houston Center
Wed 07:04:55 PM 30.3997 -94.1750 220° Southwest 402 463 16,200 -2,073 Descending Houston Center
Wed 07:05:43 PM 30.3328 -94.2378 219° Southwest 396 456 14,500 -2,129 Descending Houston Center
Wed 07:05:57 PM 30.3161 -94.2547 221° Southwest 394 453 14,000 -1,808 Descending Houston Center
Wed 07:06:56 PM 30.2347 -94.3283 218° Southwest 357 411 12,300 -1,645 Descending Houston Center
Wed 07:06:59 PM 30.2353 -94.3286 337° Northwest 379 436 12,300 -612 Level Houston Center
Wed 07:07:45 PM 30.1897 -94.4067 236° Southwest 341 392 11,800 -571 Descending Houston Center
Wed 07:08:02 PM 30.1894 -94.4225 269° West 346 398 11,700 -896 Descending Houston Center
Wed 07:08:52 PM 30.1717 -94.5203 258° West 321 369 10,800 -871 Descending Houston Center
Wed 07:09:04 PM 30.1714 -94.5219 259° West 329 379 10,800 -1,839 Level Houston Center
Wed 07:09:54 PM 30.1539 -94.6194 258° West 302 348 8,900 -2,129 Descending Houston Center
Wed 07:10:06 PM 30.1508 -94.6344 257° West 307 353 8,600 -1,818 Descending Houston Center
Wed 07:11:00 PM 30.1347 -94.7258 259° West 298 343 6,900 -1,742 Descending Houston Center
Wed 07:11:08 PM 30.1356 -94.7292 286° West 302 348 6,800 -873 Descending Houston Center
Wed 07:11:55 PM 30.1217 -94.8094 259° West 293 337 6,100 -774 Descending Houston Center
Wed 07:12:10 PM 30.1197 -94.8206 259° West 294 338 6,000 -78 Descending Houston Center
Wed 07:13:12 PM 30.1056 -94.9122 260° West 291 335 6,000  Level Houston Center
Wed 07:14:04 PM 30.1108 -95.0042 274° West 291 335 6,000  Level Houston Center
Wed 07:14:14 PM 30.1119 -95.0036 23° Northeast 288 331 6,000  Level Houston Center
Wed 07:14:59 PM 30.1103 -95.0864 269° West 282 325 6,000  Level Houston Center
Wed 07:15:16 PM 30.1117 -95.1117 274° West 284 327 6,000  Level Houston Center
Wed 07:16:01 PM 30.1083 -95.1808 267° West 283 326 6,000  Level Houston Center
Wed 07:16:18 PM 30.1094 -95.2025 273° West 284 327 6,000  Level Houston Center
Wed 07:17:02 PM 30.1106 -95.2725 271° West 288 331 6,000  Level Houston Center
Wed 07:17:21 PM 30.1117 -95.2939 273° West 286 329 6,000  Level Houston Center
Wed 07:18:03 PM 30.1111 -95.3689 270° West 286 329 6,000 97 Level Houston Center
Wed 07:18:23 PM 30.1117 -95.3850 272° West 286 329 6,100 -537 Climbing Houston Center
Wed 07:19:10 PM 30.1083 -95.4561 267° West 237 273 5,400 -677 Descending Houston Center
Wed 07:19:25 PM 30.1103 -95.4617 292° West 249 287 5,400 -1,180 Level Houston Center
Wed 07:20:11 PM 30.1092 -95.5333 269° West 233 268 4,200 -1,355 Descending Houston Center
Wed 07:20:27 PM 30.1103 -95.5492 275° West 233 268 4,000 -787 Descending Houston Center
Wed 07:21:12 PM 30.0822 -95.5850 228° Southwest 205 236 3,400 -677 Descending Houston Center
Wed 07:21:29 PM 30.0714 -95.5897 201° Southwest 214 246 3,300 -393 Descending Houston Center
Wed 07:22:13 PM 30.0292 -95.5767 165° South 196 226 3,000 -290 Descending Houston Center
Wed 07:22:31 PM 30.0222 -95.5678 132° Southeast 196 226 3,000 -97 Level Houston Center
Wed 07:23:15 PM 30.0058 -95.5289 116° Southeast 169 194 2,900 -194 Descending Houston Center
Wed 07:23:33 PM 30.0069 -95.5169 84° East 193 222 2,800 -689 Descending Houston Center
Wed 07:24:16 PM 30.0069 -95.4708 90° East 171 197 2,200 -774 Descending Houston Center
Wed 07:24:35 PM 30.0072 -95.4622 88° East 181 208 2,000 -885 Descending Houston Center
Wed 07:25:17 PM 30.0067 -95.4225 91° East 130 150 1,300 -774 Descending Houston Center
Wed 07:25:37 PM 30.0078 -95.4144 81° East 169 194 1,200 -787 Descending Houston Center
Wed 07:26:18 PM 30.0069 -95.3792 92° East 135 155 500 -581 Descending Houston Center
Wed 07:26:39 PM 30.0081 -95.3678 84° East 155 178 600 286 Climbing Houston Center

Login

Don't have an account? Register now (free) for customized features, flight alerts, and more!